Ms Nordnorge — 3YGW — position and weather

sailwx.info

Track history (hours):
 
Tides and Currents Weather Stations Pressure Air Temp Water Temp Dewpoint Dewpoint Depression Visibility Wind Speed Wind Dir Waves Ship Positions

Ms Nordnorge

Last reported at 2020-Feb-22 06:30 UTC. Time now 2020-Feb-22 06:46 UTC.
Position N 63°39' E 009°46'.

Length 123 m; draft 5.1 m.

Type: Passenger vessel. MMSI: 259371000.

Date/timePositionNaut miles runAvg speedWind from/ knotsBaromVisibWave heightAir tempDewpointWater temp
2020-Feb-22 06:30N 63°39' E 009°46'1110.5
2020-Feb-22 05:30N 63°35' E 009°24'2911.6
2020-Feb-22 03:00N 63°22' E 008°26'24 7.0
2020-Feb-21 23:31N 63°07' E 007°44'26 8.8
2020-Feb-21 20:31N 62°53' E 006°54'1110.7
2020-Feb-21 19:30N 62°44' E 007°05'2 0.6
2020-Feb-21 16:29N 62°44' E 007°09'0 0.0
2020-Feb-21 16:00N 62°44' E 007°09'0 0.0
2020-Feb-21 15:30N 62°44' E 007°09'57 6.7
2020-Feb-21 07:00N 62°17' E 005°21'1610.6
2020-Feb-21 05:30N 62°02' E 005°09'13 8.4
2020-Feb-21 04:00N 61°50' E 005°15'1413.4
2020-Feb-21 03:00N 61°39' E 004°59'3 5.7
2020-Feb-21 02:30N 61°36' E 005°02'2512.5
2020-Feb-21 00:30N 61°13' E 004°42'5310.4
2020-Feb-20 19:28N 60°24' E 005°19'0 0.0
2020-Feb-20 18:58N 60°24' E 005°19'0 0.0
2020-Feb-20 17:28N 60°24' E 005°19'0 0.0
2020-Feb-20 16:28N 60°24' E 005°19'0 0.0
2020-Feb-20 15:58N 60°24' E 005°19'0 0.0
2020-Feb-20 15:31N 60°24' E 005°19'0 0.0
2020-Feb-20 15:00N 60°24' E 005°19'0 0.0
2020-Feb-20 14:30N 60°24' E 005°19'1010.1
2020-Feb-20 13:30N 60°32' E 005°06'18 9.1
2020-Feb-20 11:30N 60°47' E 004°46'612.8
2020-Feb-20 11:00N 60°53' E 004°46'713.2
2020-Feb-20 10:30N 60°60' E 004°45'5410.8
2020-Feb-20 05:30N 61°52' E 005°14'17 8.4
2020-Feb-20 03:30N 62°08' E 005°05'1212.0
2020-Feb-20 02:30N 62°17' E 005°23'24 7.0
2020-Feb-19 23:00N 62°29' E 006°09'1812.1
2020-Feb-19 21:30N 62°39' E 006°41'9 4.5
2020-Feb-19 19:30N 62°43' E 006°58'713.4
2020-Feb-19 19:00N 62°50' E 006°58'712.9
2020-Feb-19 18:30N 62°55' E 006°50'1812.3
2020-Feb-19 17:00N 63°04' E 007°25'9 9.0
2020-Feb-19 16:01N 63°07' E 007°44'3 3.4
2020-Feb-19 15:00N 63°10' E 007°46'1413.9
2020-Feb-19 14:00N 63°18' E 008°12'714.0
2020-Feb-19 13:30N 63°22' E 008°24'1414.1
2020-Feb-19 12:30N 63°28' E 008°53'1413.9
2020-Feb-19 11:31N 63°34' E 009°21'29 8.4
2020-Feb-19 08:00N 63°27' E 010°24'0 0.0
2020-Feb-19 06:01N 63°27' E 010°24'5 5.2
2020-Feb-19 05:00N 63°28' E 010°13'713.8
2020-Feb-19 04:30N 63°29' E 009°58'1312.8
2020-Feb-19 03:30N 63°39' E 009°39'9 8.7
2020-Feb-19 02:30N 63°47' E 009°34'3413.4
2020-Feb-19 00:00N 64°15' E 010°17'712.9
2020-Feb-18 23:30N 64°20' E 010°27'613.0
2020-Feb-18 23:00N 64°26' E 010°27'3213.0
2020-Feb-18 20:30N 64°52' E 011°14'18 9.2
2020-Feb-18 18:30N 65°04' E 011°46'2113.9
2020-Feb-18 17:00N 65°23' E 012°07'6 3.8
2020-Feb-18 15:30N 65°29' E 012°13'0 0.0
2020-Feb-18 14:30N 65°29' E 012°13'10 8.6
2020-Feb-18 13:18N 65°39' E 012°15'414.2
2020-Feb-18 13:00N 65°43' E 012°17'714.1
2020-Feb-18 12:30N 65°50' E 012°21'1313.2
2020-Feb-18 11:30N 66°02' E 012°36'12 7.7
2020-Feb-18 10:00N 66°10' E 012°56'3 5.6
2020-Feb-18 09:30N 66°12' E 012°60'1312.7
2020-Feb-18 08:30N 66°25' E 012°58'713.5
2020-Feb-18 08:01N 66°32' E 012°58'4810.7
2020-Feb-18 03:30N 67°11' E 014°07'815.3
2020-Feb-18 03:00N 67°17' E 014°21'1 2.8
2020-Feb-18 02:31N 67°17' E 014°24'19 7.4
2020-Feb-18 00:00N 67°36' E 014°18'61 6.4
2020-Feb-17 14:30N 68°35' E 014°57'10 5.2
2020-Feb-17 12:30N 68°39' E 015°23'23 6.6
2020-Feb-17 09:00N 68°59' E 015°56'714.0
2020-Feb-17 08:30N 68°57' E 016°14'714.1
2020-Feb-17 08:00N 68°52' E 016°29'12 5.9
2020-Feb-17 06:00N 68°56' E 017°00'1414.3
2020-Feb-17 05:01N 69°06' E 017°28'1313.1
2020-Feb-17 04:00N 69°13' E 017°60'28 9.4
2020-Feb-17 01:00N 69°35' E 018°50'5 4.8
2020-Feb-17 00:00N 69°39' E 018°58'0 0.0
2020-Feb-16 23:30N 69°39' E 018°58'9 6.1
2020-Feb-16 22:00N 69°46' E 019°11'714.2
2020-Feb-16 21:30N 69°49' E 019°30'2813.8
2020-Feb-16 19:30N 70°02' E 020°41'713.4
2020-Feb-16 19:00N 70°04' E 021°00'2 4.1
2020-Feb-16 18:30N 70°02' E 020°59'1212.4
2020-Feb-16 17:30N 70°14' E 021°09'713.6
2020-Feb-16 17:00N 70°18' E 021°25'1111.1
2020-Feb-16 16:00N 70°22' E 021°56'8 5.4
2020-Feb-16 14:30N 70°18' E 022°19'612.5
2020-Feb-16 14:01N 70°24' E 022°28'714.1
2020-Feb-16 13:30N 70°28' E 022°45'1515.1
2020-Feb-16 12:30N 70°37' E 023°20'7 3.7
2020-Feb-16 10:31N 70°40' E 023°41'0 0.0
2020-Feb-16 10:01N 70°40' E 023°41'8 8.1
2020-Feb-16 09:00N 70°48' E 023°48'2114.1
2020-Feb-16 07:30N 71°02' E 024°36'2 4.8
2020-Feb-16 07:00N 70°60' E 024°41'1912.9
2020-Feb-16 05:30N 70°56' E 025°39'18 8.8
2020-Feb-16 03:30N 70°59' E 026°32'1610.5
2020-Feb-16 02:00N 70°57' E 027°20'611.2
2020-Feb-16 01:30N 71°02' E 027°11'1312.8
2020-Feb-16 00:30N 71°07' E 027°47'4 4.7
2020-Feb-15 23:43N 71°04' E 027°51'913.1
2020-Feb-15 23:00N 71°07' E 028°18'2114.2
2020-Feb-15 21:30N 70°53' E 029°08'19 7.8
2020-Feb-15 19:01N 70°38' E 029°44'18 9.0
2020-Feb-15 17:00N 70°35' E 030°37'713.5
2020-Feb-15 16:30N 70°30' E 030°52'9 8.7
2020-Feb-15 15:30N 70°22' E 031°06'11 7.5
2020-Feb-15 14:01N 70°12' E 030°54'3311.0
2020-Feb-15 11:00N 69°44' E 030°04'0 0.0
2020-Feb-15 08:30N 69°44' E 030°04'22 8.7
2020-Feb-15 06:00N 70°04' E 029°44'34 8.5
2020-Feb-15 02:01N 70°29' E 030°54'2412.0
2020-Feb-15 00:00N 70°39' E 029°49'26 7.5
2020-Feb-14 20:30N 70°58' E 028°51'1912.4
2020-Feb-14 19:00N 71°06' E 028°00'4 3.8
2020-Feb-14 17:59N 71°05' E 027°49'510.5
2020-Feb-14 17:30N 71°08' E 027°36'1111.3
2020-Feb-14 16:30N 70°59' E 027°14'2 4.3
2020-Feb-14 16:00N 70°57' E 027°18'2114.1
2020-Feb-14 14:30N 70°58' E 026°14'510.3
2020-Feb-14 14:00N 70°59' E 025°58'0 0.2
2020-Feb-14 13:00N 70°59' E 025°58'0 0.0
2020-Feb-14 12:00N 70°59' E 025°58'0 0.0
2020-Feb-14 10:30N 70°59' E 025°58'1510.0
2020-Feb-14 09:00N 70°59' E 025°12'714.1
2020-Feb-14 08:30N 70°60' E 024°50'10 6.7
2020-Feb-14 07:00N 70°58' E 024°20'2013.5
2020-Feb-14 05:30N 70°43' E 023°37'4 7.7
2020-Feb-14 05:01N 70°40' E 023°41'1 1.2
2020-Feb-14 04:01N 70°40' E 023°37'2214.5
2020-Feb-14 02:30N 70°27' E 022°42'1313.4
2020-Feb-14 01:30N 70°17' E 022°19'16 8.1
2020-Feb-13 23:30N 70°21' E 021°33'1313.5
2020-Feb-13 22:30N 70°11' E 021°07'713.5
2020-Feb-13 22:01N 70°04' E 021°03'2 4.8
2020-Feb-13 21:30N 70°02' E 020°59'9 8.8
2020-Feb-13 20:30N 70°01' E 020°34'714.0
2020-Feb-13 20:00N 69°59' E 020°14'2814.1
2020-Feb-13 18:00N 69°44' E 019°04'6 5.8
2020-Feb-13 16:59N 69°39' E 018°58'0 0.0
2020-Feb-13 16:29N 69°39' E 018°58'0 0.0
2020-Feb-13 13:28N 69°39' E 018°58'3311.0
2020-Feb-13 10:30N 69°14' E 017°58'5 4.5
2020-Feb-13 09:31N 69°10' E 017°53'1313.3
2020-Feb-13 08:31N 69°03' E 017°21'713.4
2020-Feb-13 08:00N 68°58' E 017°08'713.8
2020-Feb-13 07:30N 68°54' E 016°54'713.6
2020-Feb-13 07:00N 68°49' E 016°39'3 2.5
2020-Feb-13 06:00N 68°48' E 016°33'7 6.4
2020-Feb-13 04:59N 68°54' E 016°24'1212.3
2020-Feb-13 04:00N 68°59' E 015°53'510.6
2020-Feb-13 03:30N 68°58' E 015°39'29 9.5
2020-Feb-13 00:30N 68°34' E 014°55'13 6.3
2020-Feb-12 22:30N 68°22' E 014°60'612.9
2020-Feb-12 22:00N 68°16' E 014°57'9 8.7
2020-Feb-12 21:00N 68°14' E 014°34'6 3.9
2020-Feb-12 19:30N 68°11' E 014°21'18 7.3
2020-Feb-12 17:00N 67°54' E 014°02'2114.2
2020-Feb-12 15:30N 67°33' E 014°20'714.1
2020-Feb-12 15:00N 67°27' E 014°25'9 9.5
2020-Feb-12 14:01N 67°17' E 014°24'9 3.0
2020-Feb-12 11:00N 67°11' E 014°07'2114.2
2020-Feb-12 09:30N 66°56' E 013°29'612.2
2020-Feb-12 09:00N 66°52' E 013°42'3 5.3
2020-Feb-12 08:30N 66°50' E 013°39'  
Track history (hours):
 
Tides and Currents Weather Stations Pressure Air Temp Water Temp Dewpoint Dewpoint Depression Visibility Wind Speed Wind Dir Waves Ship Positions

Ms Nordnorge

Last reported at 2020-Feb-22 06:30 UTC. Time now 2020-Feb-22 06:46 UTC.
Position N 63°39' E 009°46'.

Length 123 m; draft 5.1 m.

Type: Passenger vessel. MMSI: 259371000.

Date/timePositionNaut miles runAvg speedWind from/ knotsBaromVisibWave heightAir tempDewpointWater temp
2020-Feb-22 06:30N 63°39' E 009°46'1110.5
2020-Feb-22 05:30N 63°35' E 009°24'2911.6
2020-Feb-22 03:00N 63°22' E 008°26'24 7.0
2020-Feb-21 23:31N 63°07' E 007°44'26 8.8
2020-Feb-21 20:31N 62°53' E 006°54'1110.7
2020-Feb-21 19:30N 62°44' E 007°05'2 0.6
2020-Feb-21 16:29N 62°44' E 007°09'0 0.0
2020-Feb-21 16:00N 62°44' E 007°09'0 0.0
2020-Feb-21 15:30N 62°44' E 007°09'57 6.7
2020-Feb-21 07:00N 62°17' E 005°21'1610.6
2020-Feb-21 05:30N 62°02' E 005°09'13 8.4
2020-Feb-21 04:00N 61°50' E 005°15'1413.4
2020-Feb-21 03:00N 61°39' E 004°59'3 5.7
2020-Feb-21 02:30N 61°36' E 005°02'2512.5
2020-Feb-21 00:30N 61°13' E 004°42'5310.4
2020-Feb-20 19:28N 60°24' E 005°19'0 0.0
2020-Feb-20 18:58N 60°24' E 005°19'0 0.0
2020-Feb-20 17:28N 60°24' E 005°19'0 0.0
2020-Feb-20 16:28N 60°24' E 005°19'0 0.0
2020-Feb-20 15:58N 60°24' E 005°19'0 0.0
2020-Feb-20 15:31N 60°24' E 005°19'0 0.0
2020-Feb-20 15:00N 60°24' E 005°19'0 0.0
2020-Feb-20 14:30N 60°24' E 005°19'1010.1
2020-Feb-20 13:30N 60°32' E 005°06'18 9.1
2020-Feb-20 11:30N 60°47' E 004°46'612.8
2020-Feb-20 11:00N 60°53' E 004°46'713.2
2020-Feb-20 10:30N 60°60' E 004°45'5410.8
2020-Feb-20 05:30N 61°52' E 005°14'17 8.4
2020-Feb-20 03:30N 62°08' E 005°05'1212.0
2020-Feb-20 02:30N 62°17' E 005°23'24 7.0
2020-Feb-19 23:00N 62°29' E 006°09'1812.1
2020-Feb-19 21:30N 62°39' E 006°41'9 4.5
2020-Feb-19 19:30N 62°43' E 006°58'713.4
2020-Feb-19 19:00N 62°50' E 006°58'712.9
2020-Feb-19 18:30N 62°55' E 006°50'1812.3
2020-Feb-19 17:00N 63°04' E 007°25'9 9.0
2020-Feb-19 16:01N 63°07' E 007°44'3 3.4
2020-Feb-19 15:00N 63°10' E 007°46'1413.9
2020-Feb-19 14:00N 63°18' E 008°12'714.0
2020-Feb-19 13:30N 63°22' E 008°24'1414.1
2020-Feb-19 12:30N 63°28' E 008°53'1413.9
2020-Feb-19 11:31N 63°34' E 009°21'29 8.4
2020-Feb-19 08:00N 63°27' E 010°24'0 0.0
2020-Feb-19 06:01N 63°27' E 010°24'5 5.2
2020-Feb-19 05:00N 63°28' E 010°13'713.8
2020-Feb-19 04:30N 63°29' E 009°58'1312.8
2020-Feb-19 03:30N 63°39' E 009°39'9 8.7
2020-Feb-19 02:30N 63°47' E 009°34'3413.4
2020-Feb-19 00:00N 64°15' E 010°17'712.9
2020-Feb-18 23:30N 64°20' E 010°27'613.0
2020-Feb-18 23:00N 64°26' E 010°27'3213.0
2020-Feb-18 20:30N 64°52' E 011°14'18 9.2
2020-Feb-18 18:30N 65°04' E 011°46'2113.9
2020-Feb-18 17:00N 65°23' E 012°07'6 3.8
2020-Feb-18 15:30N 65°29' E 012°13'0 0.0
2020-Feb-18 14:30N 65°29' E 012°13'10 8.6
2020-Feb-18 13:18N 65°39' E 012°15'414.2
2020-Feb-18 13:00N 65°43' E 012°17'714.1
2020-Feb-18 12:30N 65°50' E 012°21'1313.2
2020-Feb-18 11:30N 66°02' E 012°36'12 7.7
2020-Feb-18 10:00N 66°10' E 012°56'3 5.6
2020-Feb-18 09:30N 66°12' E 012°60'1312.7
2020-Feb-18 08:30N 66°25' E 012°58'713.5
2020-Feb-18 08:01N 66°32' E 012°58'4810.7
2020-Feb-18 03:30N 67°11' E 014°07'815.3
2020-Feb-18 03:00N 67°17' E 014°21'1 2.8
2020-Feb-18 02:31N 67°17' E 014°24'19 7.4
2020-Feb-18 00:00N 67°36' E 014°18'61 6.4
2020-Feb-17 14:30N 68°35' E 014°57'10 5.2
2020-Feb-17 12:30N 68°39' E 015°23'23 6.6
2020-Feb-17 09:00N 68°59' E 015°56'714.0
2020-Feb-17 08:30N 68°57' E 016°14'714.1
2020-Feb-17 08:00N 68°52' E 016°29'12 5.9
2020-Feb-17 06:00N 68°56' E 017°00'1414.3
2020-Feb-17 05:01N 69°06' E 017°28'1313.1
2020-Feb-17 04:00N 69°13' E 017°60'28 9.4
2020-Feb-17 01:00N 69°35' E 018°50'5 4.8
2020-Feb-17 00:00N 69°39' E 018°58'0 0.0
2020-Feb-16 23:30N 69°39' E 018°58'9 6.1
2020-Feb-16 22:00N 69°46' E 019°11'714.2
2020-Feb-16 21:30N 69°49' E 019°30'2813.8
2020-Feb-16 19:30N 70°02' E 020°41'713.4
2020-Feb-16 19:00N 70°04' E 021°00'2 4.1
2020-Feb-16 18:30N 70°02' E 020°59'1212.4
2020-Feb-16 17:30N 70°14' E 021°09'713.6
2020-Feb-16 17:00N 70°18' E 021°25'1111.1
2020-Feb-16 16:00N 70°22' E 021°56'8 5.4
2020-Feb-16 14:30N 70°18' E 022°19'612.5
2020-Feb-16 14:01N 70°24' E 022°28'714.1
2020-Feb-16 13:30N 70°28' E 022°45'1515.1
2020-Feb-16 12:30N 70°37' E 023°20'7 3.7
2020-Feb-16 10:31N 70°40' E 023°41'0 0.0
2020-Feb-16 10:01N 70°40' E 023°41'8 8.1
2020-Feb-16 09:00N 70°48' E 023°48'2114.1
2020-Feb-16 07:30N 71°02' E 024°36'2 4.8
2020-Feb-16 07:00N 70°60' E 024°41'1912.9
2020-Feb-16 05:30N 70°56' E 025°39'18 8.8
2020-Feb-16 03:30N 70°59' E 026°32'1610.5
2020-Feb-16 02:00N 70°57' E 027°20'611.2
2020-Feb-16 01:30N 71°02' E 027°11'1312.8
2020-Feb-16 00:30N 71°07' E 027°47'4 4.7
2020-Feb-15 23:43N 71°04' E 027°51'913.1
2020-Feb-15 23:00N 71°07' E 028°18'2114.2
2020-Feb-15 21:30N 70°53' E 029°08'19 7.8
2020-Feb-15 19:01N 70°38' E 029°44'18 9.0
2020-Feb-15 17:00N 70°35' E 030°37'713.5
2020-Feb-15 16:30N 70°30' E 030°52'9 8.7
2020-Feb-15 15:30N 70°22' E 031°06'11 7.5
2020-Feb-15 14:01N 70°12' E 030°54'3311.0
2020-Feb-15 11:00N 69°44' E 030°04'0 0.0
2020-Feb-15 08:30N 69°44' E 030°04'22 8.7
2020-Feb-15 06:00N 70°04' E 029°44'34 8.5
2020-Feb-15 02:01N 70°29' E 030°54'2412.0
2020-Feb-15 00:00N 70°39' E 029°49'26 7.5
2020-Feb-14 20:30N 70°58' E 028°51'1912.4
2020-Feb-14 19:00N 71°06' E 028°00'4 3.8
2020-Feb-14 17:59N 71°05' E 027°49'510.5
2020-Feb-14 17:30N 71°08' E 027°36'1111.3
2020-Feb-14 16:30N 70°59' E 027°14'2 4.3
2020-Feb-14 16:00N 70°57' E 027°18'2114.1
2020-Feb-14 14:30N 70°58' E 026°14'510.3
2020-Feb-14 14:00N 70°59' E 025°58'0 0.2
2020-Feb-14 13:00N 70°59' E 025°58'0 0.0
2020-Feb-14 12:00N 70°59' E 025°58'0 0.0
2020-Feb-14 10:30N 70°59' E 025°58'1510.0
2020-Feb-14 09:00N 70°59' E 025°12'714.1
2020-Feb-14 08:30N 70°60' E 024°50'10 6.7
2020-Feb-14 07:00N 70°58' E 024°20'2013.5
2020-Feb-14 05:30N 70°43' E 023°37'4 7.7
2020-Feb-14 05:01N 70°40' E 023°41'1 1.2
2020-Feb-14 04:01N 70°40' E 023°37'2214.5
2020-Feb-14 02:30N 70°27' E 022°42'1313.4
2020-Feb-14 01:30N 70°17' E 022°19'16 8.1
2020-Feb-13 23:30N 70°21' E 021°33'1313.5
2020-Feb-13 22:30N 70°11' E 021°07'713.5
2020-Feb-13 22:01N 70°04' E 021°03'2 4.8
2020-Feb-13 21:30N 70°02' E 020°59'9 8.8
2020-Feb-13 20:30N 70°01' E 020°34'714.0
2020-Feb-13 20:00N 69°59' E 020°14'2814.1
2020-Feb-13 18:00N 69°44' E 019°04'6 5.8
2020-Feb-13 16:59N 69°39' E 018°58'0 0.0
2020-Feb-13 16:29N 69°39' E 018°58'0 0.0
2020-Feb-13 13:28N 69°39' E 018°58'3311.0
2020-Feb-13 10:30N 69°14' E 017°58'5 4.5
2020-Feb-13 09:31N 69°10' E 017°53'1313.3
2020-Feb-13 08:31N 69°03' E 017°21'713.4
2020-Feb-13 08:00N 68°58' E 017°08'713.8
2020-Feb-13 07:30N 68°54' E 016°54'713.6
2020-Feb-13 07:00N 68°49' E 016°39'3 2.5
2020-Feb-13 06:00N 68°48' E 016°33'7 6.4
2020-Feb-13 04:59N 68°54' E 016°24'1212.3
2020-Feb-13 04:00N 68°59' E 015°53'510.6
2020-Feb-13 03:30N 68°58' E 015°39'29 9.5
2020-Feb-13 00:30N 68°34' E 014°55'13 6.3
2020-Feb-12 22:30N 68°22' E 014°60'612.9
2020-Feb-12 22:00N 68°16' E 014°57'9 8.7
2020-Feb-12 21:00N 68°14' E 014°34'6 3.9
2020-Feb-12 19:30N 68°11' E 014°21'18 7.3
2020-Feb-12 17:00N 67°54' E 014°02'2114.2
2020-Feb-12 15:30N 67°33' E 014°20'714.1
2020-Feb-12 15:00N 67°27' E 014°25'9 9.5
2020-Feb-12 14:01N 67°17' E 014°24'9 3.0
2020-Feb-12 11:00N 67°11' E 014°07'2114.2
2020-Feb-12 09:30N 66°56' E 013°29'612.2
2020-Feb-12 09:00N 66°52' E 013°42'3 5.3
2020-Feb-12 08:30N 66°50' E 013°39'  

Dump ship's entire track history